sensor_id;sensor_type;location;lat;lon;timestamp;P1;durP1;ratioP1;P2;durP2;ratioP2
68947;SDS011;55996;49.546;7.400;2024-03-02T00:00:54;6.80;;;4.90;;
68947;SDS011;55996;49.546;7.400;2024-03-02T00:03:20;8.47;;;5.87;;
68947;SDS011;55996;49.546;7.400;2024-03-02T00:05:51;6.73;;;5.97;;
68947;SDS011;55996;49.546;7.400;2024-03-02T00:08:22;7.13;;;5.43;;
68947;SDS011;55996;49.546;7.400;2024-03-02T00:10:51;7.67;;;5.77;;
68947;SDS011;55996;49.546;7.400;2024-03-02T00:13:18;6.60;;;5.33;;
68947;SDS011;55996;49.546;7.400;2024-03-02T00:15:48;7.27;;;5.70;;
68947;SDS011;55996;49.546;7.400;2024-03-02T00:18:26;7.43;;;5.83;;
68947;SDS011;55996;49.546;7.400;2024-03-02T00:20:55;7.73;;;5.80;;
68947;SDS011;55996;49.546;7.400;2024-03-02T00:23:22;9.17;;;6.23;;
68947;SDS011;55996;49.546;7.400;2024-03-02T00:25:48;7.77;;;6.00;;
68947;SDS011;55996;49.546;7.400;2024-03-02T00:28:16;6.33;;;5.47;;
68947;SDS011;55996;49.546;7.400;2024-03-02T00:33:18;10.17;;;6.97;;
68947;SDS011;55996;49.546;7.400;2024-03-02T00:35:45;8.60;;;6.27;;
68947;SDS011;55996;49.546;7.400;2024-03-02T00:38:10;11.37;;;5.97;;
68947;SDS011;55996;49.546;7.400;2024-03-02T00:40:37;7.50;;;6.33;;
68947;SDS011;55996;49.546;7.400;2024-03-02T00:43:02;9.57;;;6.67;;
68947;SDS011;55996;49.546;7.400;2024-03-02T00:45:31;6.90;;;5.87;;
68947;SDS011;55996;49.546;7.400;2024-03-02T00:47:56;11.20;;;6.73;;
68947;SDS011;55996;49.546;7.400;2024-03-02T00:50:22;7.67;;;5.53;;
68947;SDS011;55996;49.546;7.400;2024-03-02T00:52:47;6.00;;;5.10;;
68947;SDS011;55996;49.546;7.400;2024-03-02T00:55:15;6.60;;;5.10;;
68947;SDS011;55996;49.546;7.400;2024-03-02T00:57:41;5.27;;;4.07;;
68947;SDS011;55996;49.546;7.400;2024-03-02T01:00:07;6.63;;;4.43;;
68947;SDS011;55996;49.546;7.400;2024-03-02T01:02:35;4.97;;;3.97;;
68947;SDS011;55996;49.546;7.400;2024-03-02T01:05:00;5.00;;;3.93;;
68947;SDS011;55996;49.546;7.400;2024-03-02T01:07:26;5.77;;;3.83;;
68947;SDS011;55996;49.546;7.400;2024-03-02T01:09:51;6.03;;;3.80;;
68947;SDS011;55996;49.546;7.400;2024-03-02T01:12:17;4.63;;;3.50;;
68947;SDS011;55996;49.546;7.400;2024-03-02T01:14:42;5.17;;;4.17;;
68947;SDS011;55996;49.546;7.400;2024-03-02T01:17:07;5.07;;;3.87;;
68947;SDS011;55996;49.546;7.400;2024-03-02T01:19:33;4.73;;;3.90;;
68947;SDS011;55996;49.546;7.400;2024-03-02T01:21:58;5.37;;;4.07;;
68947;SDS011;55996;49.546;7.400;2024-03-02T01:24:24;3.80;;;3.30;;
68947;SDS011;55996;49.546;7.400;2024-03-02T01:26:49;5.60;;;3.80;;
68947;SDS011;55996;49.546;7.400;2024-03-02T01:29:14;3.90;;;3.50;;
68947;SDS011;55996;49.546;7.400;2024-03-02T01:31:40;4.67;;;3.80;;
68947;SDS011;55996;49.546;7.400;2024-03-02T01:34:07;5.33;;;3.60;;
68947;SDS011;55996;49.546;7.400;2024-03-02T01:36:33;4.33;;;3.70;;
68947;SDS011;55996;49.546;7.400;2024-03-02T01:38:58;4.77;;;3.90;;
68947;SDS011;55996;49.546;7.400;2024-03-02T01:41:23;4.73;;;3.90;;
68947;SDS011;55996;49.546;7.400;2024-03-02T01:43:49;4.07;;;3.67;;
68947;SDS011;55996;49.546;7.400;2024-03-02T01:46:14;4.20;;;3.80;;
68947;SDS011;55996;49.546;7.400;2024-03-02T01:48:40;4.53;;;3.50;;
68947;SDS011;55996;49.546;7.400;2024-03-02T01:51:06;4.30;;;3.23;;
68947;SDS011;55996;49.546;7.400;2024-03-02T01:53:32;4.17;;;3.60;;
68947;SDS011;55996;49.546;7.400;2024-03-02T01:55:57;3.67;;;3.37;;
68947;SDS011;55996;49.546;7.400;2024-03-02T01:58:22;3.70;;;3.10;;
68947;SDS011;55996;49.546;7.400;2024-03-02T02:00:48;3.70;;;3.30;;
68947;SDS011;55996;49.546;7.400;2024-03-02T02:03:14;4.37;;;3.93;;
68947;SDS011;55996;49.546;7.400;2024-03-02T02:05:39;5.93;;;4.50;;
68947;SDS011;55996;49.546;7.400;2024-03-02T02:08:07;4.83;;;4.10;;
68947;SDS011;55996;49.546;7.400;2024-03-02T02:10:32;4.80;;;3.77;;
68947;SDS011;55996;49.546;7.400;2024-03-02T02:12:58;4.20;;;3.70;;
68947;SDS011;55996;49.546;7.400;2024-03-02T02:15:30;4.00;;;3.60;;
68947;SDS011;55996;49.546;7.400;2024-03-02T02:17:56;4.30;;;3.43;;
68947;SDS011;55996;49.546;7.400;2024-03-02T02:20:22;4.30;;;3.73;;
68947;SDS011;55996;49.546;7.400;2024-03-02T02:23:07;5.70;;;3.23;;
68947;SDS011;55996;49.546;7.400;2024-03-02T02:25:34;3.67;;;3.27;;
68947;SDS011;55996;49.546;7.400;2024-03-02T02:28:00;3.83;;;3.43;;
68947;SDS011;55996;49.546;7.400;2024-03-02T02:30:31;4.10;;;3.57;;
68947;SDS011;55996;49.546;7.400;2024-03-02T02:32:57;4.40;;;4.00;;
68947;SDS011;55996;49.546;7.400;2024-03-02T02:35:23;5.53;;;4.30;;
68947;SDS011;55996;49.546;7.400;2024-03-02T02:37:52;5.63;;;4.80;;
68947;SDS011;55996;49.546;7.400;2024-03-02T02:40:19;9.40;;;5.07;;
68947;SDS011;55996;49.546;7.400;2024-03-02T02:42:44;7.33;;;5.30;;
68947;SDS011;55996;49.546;7.400;2024-03-02T02:45:09;9.33;;;5.40;;
68947;SDS011;55996;49.546;7.400;2024-03-02T02:47:36;7.50;;;5.97;;
68947;SDS011;55996;49.546;7.400;2024-03-02T02:50:02;7.33;;;5.23;;
68947;SDS011;55996;49.546;7.400;2024-03-02T02:52:32;5.63;;;4.63;;
68947;SDS011;55996;49.546;7.400;2024-03-02T02:55:02;5.20;;;4.00;;
68947;SDS011;55996;49.546;7.400;2024-03-02T02:57:28;4.73;;;4.17;;
68947;SDS011;55996;49.546;7.400;2024-03-02T02:59:56;3.93;;;3.57;;
68947;SDS011;55996;49.546;7.400;2024-03-02T03:02:21;6.30;;;3.37;;
68947;SDS011;55996;49.546;7.400;2024-03-02T03:04:49;3.50;;;3.20;;
68947;SDS011;55996;49.546;7.400;2024-03-02T03:07:14;4.77;;;3.40;;
68947;SDS011;55996;49.546;7.400;2024-03-02T03:09:40;3.50;;;3.20;;
68947;SDS011;55996;49.546;7.400;2024-03-02T03:12:05;3.33;;;3.03;;
68947;SDS011;55996;49.546;7.400;2024-03-02T03:14:30;3.93;;;3.13;;
68947;SDS011;55996;49.546;7.400;2024-03-02T03:16:56;4.30;;;3.43;;
68947;SDS011;55996;49.546;7.400;2024-03-02T03:19:21;4.53;;;3.27;;
68947;SDS011;55996;49.546;7.400;2024-03-02T03:21:46;3.97;;;3.30;;
68947;SDS011;55996;49.546;7.400;2024-03-02T03:24:12;3.53;;;3.10;;
68947;SDS011;55996;49.546;7.400;2024-03-02T03:26:37;3.70;;;3.17;;
68947;SDS011;55996;49.546;7.400;2024-03-02T03:29:02;3.87;;;3.47;;
68947;SDS011;55996;49.546;7.400;2024-03-02T03:31:29;3.27;;;2.97;;
68947;SDS011;55996;49.546;7.400;2024-03-02T03:33:54;4.53;;;3.40;;
68947;SDS011;55996;49.546;7.400;2024-03-02T03:36:20;5.57;;;3.20;;
68947;SDS011;55996;49.546;7.400;2024-03-02T03:38:45;3.90;;;3.50;;
68947;SDS011;55996;49.546;7.400;2024-03-02T03:41:10;5.00;;;3.33;;
68947;SDS011;55996;49.546;7.400;2024-03-02T03:43:36;5.77;;;3.50;;
68947;SDS011;55996;49.546;7.400;2024-03-02T03:46:01;4.63;;;3.30;;
68947;SDS011;55996;49.546;7.400;2024-03-02T03:48:27;3.87;;;3.43;;
68947;SDS011;55996;49.546;7.400;2024-03-02T03:50:55;5.70;;;3.20;;
68947;SDS011;55996;49.546;7.400;2024-03-02T03:53:21;3.87;;;3.10;;
68947;SDS011;55996;49.546;7.400;2024-03-02T03:55:47;5.10;;;3.57;;
68947;SDS011;55996;49.546;7.400;2024-03-02T03:58:14;4.47;;;3.47;;
68947;SDS011;55996;49.546;7.400;2024-03-02T04:00:41;3.70;;;3.40;;
68947;SDS011;55996;49.546;7.400;2024-03-02T04:03:07;3.70;;;3.30;;
68947;SDS011;55996;49.546;7.400;2024-03-02T04:05:32;3.93;;;3.63;;
68947;SDS011;55996;49.546;7.400;2024-03-02T04:07:57;4.23;;;3.43;;
68947;SDS011;55996;49.546;7.400;2024-03-02T04:10:23;3.80;;;3.50;;
68947;SDS011;55996;49.546;7.400;2024-03-02T04:12:49;4.77;;;4.10;;
68947;SDS011;55996;49.546;7.400;2024-03-02T04:15:15;5.37;;;4.40;;
68947;SDS011;55996;49.546;7.400;2024-03-02T04:17:41;4.70;;;4.20;;
68947;SDS011;55996;49.546;7.400;2024-03-02T04:20:06;6.33;;;4.50;;
68947;SDS011;55996;49.546;7.400;2024-03-02T04:22:33;4.53;;;4.03;;
68947;SDS011;55996;49.546;7.400;2024-03-02T04:25:00;4.87;;;4.10;;
68947;SDS011;55996;49.546;7.400;2024-03-02T04:27:26;5.90;;;4.23;;
68947;SDS011;55996;49.546;7.400;2024-03-02T04:29:52;7.00;;;4.60;;
68947;SDS011;55996;49.546;7.400;2024-03-02T04:32:17;5.50;;;4.30;;
68947;SDS011;55996;49.546;7.400;2024-03-02T04:34:44;4.80;;;3.93;;
68947;SDS011;55996;49.546;7.400;2024-03-02T04:37:10;5.17;;;3.80;;
68947;SDS011;55996;49.546;7.400;2024-03-02T04:39:37;4.37;;;3.93;;
68947;SDS011;55996;49.546;7.400;2024-03-02T04:42:02;4.43;;;4.03;;
68947;SDS011;55996;49.546;7.400;2024-03-02T04:44:28;5.10;;;4.20;;
68947;SDS011;55996;49.546;7.400;2024-03-02T04:46:53;5.43;;;4.37;;
68947;SDS011;55996;49.546;7.400;2024-03-02T04:49:18;5.67;;;3.80;;
68947;SDS011;55996;49.546;7.400;2024-03-02T04:51:44;5.23;;;4.20;;
68947;SDS011;55996;49.546;7.400;2024-03-02T04:54:09;3.97;;;3.53;;
68947;SDS011;55996;49.546;7.400;2024-03-02T04:56:34;4.20;;;3.80;;
68947;SDS011;55996;49.546;7.400;2024-03-02T04:59:20;4.67;;;3.73;;
68947;SDS011;55996;49.546;7.400;2024-03-02T05:01:45;4.47;;;3.90;;
68947;SDS011;55996;49.546;7.400;2024-03-02T05:04:12;4.00;;;3.60;;
68947;SDS011;55996;49.546;7.400;2024-03-02T05:06:38;4.53;;;3.83;;
68947;SDS011;55996;49.546;7.400;2024-03-02T05:09:07;5.77;;;4.17;;
68947;SDS011;55996;49.546;7.400;2024-03-02T05:11:33;7.50;;;4.50;;
68947;SDS011;55996;49.546;7.400;2024-03-02T05:14:04;4.50;;;4.10;;
68947;SDS011;55996;49.546;7.400;2024-03-02T05:16:34;4.70;;;4.17;;
68947;SDS011;55996;49.546;7.400;2024-03-02T05:19:00;6.43;;;4.50;;
68947;SDS011;55996;49.546;7.400;2024-03-02T05:21:26;3.67;;;3.37;;
68947;SDS011;55996;49.546;7.400;2024-03-02T05:23:51;5.67;;;3.73;;
68947;SDS011;55996;49.546;7.400;2024-03-02T05:26:16;5.00;;;4.03;;
68947;SDS011;55996;49.546;7.400;2024-03-02T05:28:42;4.27;;;3.60;;
68947;SDS011;55996;49.546;7.400;2024-03-02T05:31:10;7.93;;;4.60;;
68947;SDS011;55996;49.546;7.400;2024-03-02T05:33:39;5.53;;;4.50;;
68947;SDS011;55996;49.546;7.400;2024-03-02T05:36:04;5.60;;;4.60;;
68947;SDS011;55996;49.546;7.400;2024-03-02T05:38:30;5.33;;;4.43;;
68947;SDS011;55996;49.546;7.400;2024-03-02T05:40:56;6.47;;;4.50;;
68947;SDS011;55996;49.546;7.400;2024-03-02T05:43:21;6.97;;;4.73;;
68947;SDS011;55996;49.546;7.400;2024-03-02T05:45:46;6.03;;;4.83;;
68947;SDS011;55996;49.546;7.400;2024-03-02T05:48:12;4.87;;;4.33;;
68947;SDS011;55996;49.546;7.400;2024-03-02T05:50:37;5.37;;;4.30;;
68947;SDS011;55996;49.546;7.400;2024-03-02T05:53:03;5.87;;;4.23;;
68947;SDS011;55996;49.546;7.400;2024-03-02T05:55:28;6.47;;;4.33;;
68947;SDS011;55996;49.546;7.400;2024-03-02T05:57:54;4.90;;;4.00;;
68947;SDS011;55996;49.546;7.400;2024-03-02T06:00:32;5.63;;;4.33;;
68947;SDS011;55996;49.546;7.400;2024-03-02T06:02:57;8.87;;;4.80;;
68947;SDS011;55996;49.546;7.400;2024-03-02T06:05:23;6.37;;;4.80;;
68947;SDS011;55996;49.546;7.400;2024-03-02T06:07:49;7.53;;;5.40;;
68947;SDS011;55996;49.546;7.400;2024-03-02T06:10:15;6.07;;;4.83;;
68947;SDS011;55996;49.546;7.400;2024-03-02T06:12:40;6.30;;;4.60;;
68947;SDS011;55996;49.546;7.400;2024-03-02T06:15:06;8.10;;;4.93;;
68947;SDS011;55996;49.546;7.400;2024-03-02T06:17:32;6.10;;;4.90;;
68947;SDS011;55996;49.546;7.400;2024-03-02T06:19:57;5.30;;;4.50;;
68947;SDS011;55996;49.546;7.400;2024-03-02T06:22:23;6.90;;;5.17;;
68947;SDS011;55996;49.546;7.400;2024-03-02T06:24:50;5.87;;;4.87;;
68947;SDS011;55996;49.546;7.400;2024-03-02T06:27:15;7.90;;;5.50;;
68947;SDS011;55996;49.546;7.400;2024-03-02T06:29:41;9.27;;;6.10;;
68947;SDS011;55996;49.546;7.400;2024-03-02T06:32:07;10.10;;;6.63;;
68947;SDS011;55996;49.546;7.400;2024-03-02T06:34:32;8.00;;;5.90;;
68947;SDS011;55996;49.546;7.400;2024-03-02T06:36:57;5.90;;;5.30;;
68947;SDS011;55996;49.546;7.400;2024-03-02T06:39:23;6.40;;;5.50;;
68947;SDS011;55996;49.546;7.400;2024-03-02T06:41:48;7.57;;;5.33;;
68947;SDS011;55996;49.546;7.400;2024-03-02T06:44:13;5.53;;;5.00;;
68947;SDS011;55996;49.546;7.400;2024-03-02T06:46:39;8.13;;;5.80;;
68947;SDS011;55996;49.546;7.400;2024-03-02T06:49:04;7.17;;;6.10;;
68947;SDS011;55996;49.546;7.400;2024-03-02T06:51:30;9.27;;;7.73;;
68947;SDS011;55996;49.546;7.400;2024-03-02T06:53:55;6.43;;;5.50;;
68947;SDS011;55996;49.546;7.400;2024-03-02T06:56:21;6.60;;;5.90;;
68947;SDS011;55996;49.546;7.400;2024-03-02T06:58:46;6.67;;;5.77;;
68947;SDS011;55996;49.546;7.400;2024-03-02T07:01:12;7.83;;;5.87;;
68947;SDS011;55996;49.546;7.400;2024-03-02T07:03:38;6.80;;;6.10;;
68947;SDS011;55996;49.546;7.400;2024-03-02T07:06:04;7.60;;;6.03;;
68947;SDS011;55996;49.546;7.400;2024-03-02T07:08:30;9.23;;;6.10;;
68947;SDS011;55996;49.546;7.400;2024-03-02T07:10:55;7.93;;;5.87;;
68947;SDS011;55996;49.546;7.400;2024-03-02T07:13:22;7.27;;;6.47;;
68947;SDS011;55996;49.546;7.400;2024-03-02T07:15:47;7.63;;;6.03;;
68947;SDS011;55996;49.546;7.400;2024-03-02T07:18:25;8.00;;;6.97;;
68947;SDS011;55996;49.546;7.400;2024-03-02T07:20:50;9.33;;;8.17;;
68947;SDS011;55996;49.546;7.400;2024-03-02T07:23:16;10.63;;;9.47;;
68947;SDS011;55996;49.546;7.400;2024-03-02T07:25:41;12.03;;;10.40;;
68947;SDS011;55996;49.546;7.400;2024-03-02T07:28:06;8.57;;;7.20;;
68947;SDS011;55996;49.546;7.400;2024-03-02T07:30:32;7.67;;;6.93;;
68947;SDS011;55996;49.546;7.400;2024-03-02T07:32:58;8.43;;;7.27;;
68947;SDS011;55996;49.546;7.400;2024-03-02T07:35:24;7.10;;;6.37;;
68947;SDS011;55996;49.546;7.400;2024-03-02T07:37:52;7.77;;;6.97;;
68947;SDS011;55996;49.546;7.400;2024-03-02T07:40:18;8.90;;;7.93;;
68947;SDS011;55996;49.546;7.400;2024-03-02T07:42:44;8.60;;;7.73;;
68947;SDS011;55996;49.546;7.400;2024-03-02T07:45:10;8.37;;;7.40;;
68947;SDS011;55996;49.546;7.400;2024-03-02T07:47:36;6.53;;;5.53;;
68947;SDS011;55996;49.546;7.400;2024-03-02T07:50:02;6.93;;;5.77;;
68947;SDS011;55996;49.546;7.400;2024-03-02T07:52:28;6.23;;;5.63;;
68947;SDS011;55996;49.546;7.400;2024-03-02T07:54:54;6.40;;;5.57;;
68947;SDS011;55996;49.546;7.400;2024-03-02T07:57:20;7.33;;;5.03;;
68947;SDS011;55996;49.546;7.400;2024-03-02T07:59:45;7.17;;;5.30;;
68947;SDS011;55996;49.546;7.400;2024-03-02T08:02:12;4.93;;;4.43;;
68947;SDS011;55996;49.546;7.400;2024-03-02T08:04:37;6.13;;;5.20;;
68947;SDS011;55996;49.546;7.400;2024-03-02T08:07:03;5.80;;;5.17;;
68947;SDS011;55996;49.546;7.400;2024-03-02T08:09:29;4.97;;;4.47;;
68947;SDS011;55996;49.546;7.400;2024-03-02T08:11:54;5.43;;;4.47;;
68947;SDS011;55996;49.546;7.400;2024-03-02T08:14:21;5.50;;;5.00;;
68947;SDS011;55996;49.546;7.400;2024-03-02T08:16:47;6.03;;;5.20;;
68947;SDS011;55996;49.546;7.400;2024-03-02T08:19:12;6.60;;;4.73;;
68947;SDS011;55996;49.546;7.400;2024-03-02T08:21:38;4.70;;;4.20;;
68947;SDS011;55996;49.546;7.400;2024-03-02T08:24:03;4.73;;;4.20;;
68947;SDS011;55996;49.546;7.400;2024-03-02T08:26:29;5.90;;;4.07;;
68947;SDS011;55996;49.546;7.400;2024-03-02T08:28:56;4.97;;;4.03;;
68947;SDS011;55996;49.546;7.400;2024-03-02T08:31:23;8.10;;;3.93;;
68947;SDS011;55996;49.546;7.400;2024-03-02T08:33:48;4.43;;;3.13;;
68947;SDS011;55996;49.546;7.400;2024-03-02T08:36:13;4.20;;;3.20;;
68947;SDS011;55996;49.546;7.400;2024-03-02T08:38:39;4.23;;;3.83;;
68947;SDS011;55996;49.546;7.400;2024-03-02T08:41:05;4.80;;;3.13;;
68947;SDS011;55996;49.546;7.400;2024-03-02T08:43:32;5.37;;;2.93;;
68947;SDS011;55996;49.546;7.400;2024-03-02T08:45:58;3.27;;;2.97;;
68947;SDS011;55996;49.546;7.400;2024-03-02T08:48:23;3.83;;;3.20;;
68947;SDS011;55996;49.546;7.400;2024-03-02T08:50:49;5.23;;;3.17;;
68947;SDS011;55996;49.546;7.400;2024-03-02T08:53:14;3.40;;;2.90;;
68947;SDS011;55996;49.546;7.400;2024-03-02T08:55:44;4.77;;;3.77;;
68947;SDS011;55996;49.546;7.400;2024-03-02T08:58:12;3.97;;;3.57;;
68947;SDS011;55996;49.546;7.400;2024-03-02T09:00:38;4.13;;;3.47;;
68947;SDS011;55996;49.546;7.400;2024-03-02T09:03:04;5.17;;;3.40;;
68947;SDS011;55996;49.546;7.400;2024-03-02T09:05:29;6.47;;;3.40;;
68947;SDS011;55996;49.546;7.400;2024-03-02T09:07:55;4.73;;;3.43;;
68947;SDS011;55996;49.546;7.400;2024-03-02T09:10:20;4.97;;;3.50;;
68947;SDS011;55996;49.546;7.400;2024-03-02T09:12:46;3.93;;;2.83;;
68947;SDS011;55996;49.546;7.400;2024-03-02T09:15:11;4.73;;;3.73;;
68947;SDS011;55996;49.546;7.400;2024-03-02T09:17:37;4.07;;;3.40;;
68947;SDS011;55996;49.546;7.400;2024-03-02T09:20:02;3.70;;;3.30;;
68947;SDS011;55996;49.546;7.400;2024-03-02T09:22:29;4.17;;;3.37;;
68947;SDS011;55996;49.546;7.400;2024-03-02T09:24:55;3.67;;;3.37;;
68947;SDS011;55996;49.546;7.400;2024-03-02T09:27:21;5.53;;;3.67;;
68947;SDS011;55996;49.546;7.400;2024-03-02T09:29:47;6.63;;;3.57;;
68947;SDS011;55996;49.546;7.400;2024-03-02T09:32:13;4.63;;;3.27;;
68947;SDS011;55996;49.546;7.400;2024-03-02T09:34:39;4.17;;;3.30;;
68947;SDS011;55996;49.546;7.400;2024-03-02T09:37:07;3.53;;;3.20;;
68947;SDS011;55996;49.546;7.400;2024-03-02T09:39:33;4.67;;;3.20;;
68947;SDS011;55996;49.546;7.400;2024-03-02T09:42:01;4.83;;;3.40;;
68947;SDS011;55996;49.546;7.400;2024-03-02T09:44:29;4.37;;;3.00;;
68947;SDS011;55996;49.546;7.400;2024-03-02T09:46:55;4.23;;;3.40;;
68947;SDS011;55996;49.546;7.400;2024-03-02T09:49:20;3.67;;;2.87;;
68947;SDS011;55996;49.546;7.400;2024-03-02T09:51:47;3.37;;;3.07;;
68947;SDS011;55996;49.546;7.400;2024-03-02T09:54:14;3.20;;;2.90;;
68947;SDS011;55996;49.546;7.400;2024-03-02T09:56:41;3.87;;;3.30;;
68947;SDS011;55996;49.546;7.400;2024-03-02T09:59:06;5.57;;;3.40;;
68947;SDS011;55996;49.546;7.400;2024-03-02T10:01:33;4.90;;;3.80;;
68947;SDS011;55996;49.546;7.400;2024-03-02T10:03:59;4.27;;;3.50;;
68947;SDS011;55996;49.546;7.400;2024-03-02T10:06:25;4.93;;;3.67;;
68947;SDS011;55996;49.546;7.400;2024-03-02T10:08:52;5.47;;;3.03;;
68947;SDS011;55996;49.546;7.400;2024-03-02T10:11:36;6.27;;;3.57;;
68947;SDS011;55996;49.546;7.400;2024-03-02T10:16:36;5.37;;;3.00;;
68947;SDS011;55996;49.546;7.400;2024-03-02T10:19:14;4.43;;;3.30;;
68947;SDS011;55996;49.546;7.400;2024-03-02T10:21:40;3.67;;;3.20;;
68947;SDS011;55996;49.546;7.400;2024-03-02T10:24:09;4.00;;;3.03;;
68947;SDS011;55996;49.546;7.400;2024-03-02T10:26:34;3.73;;;2.87;;
68947;SDS011;55996;49.546;7.400;2024-03-02T10:29:00;2.77;;;2.40;;
68947;SDS011;55996;49.546;7.400;2024-03-02T10:31:26;2.70;;;2.40;;
68947;SDS011;55996;49.546;7.400;2024-03-02T10:33:57;3.50;;;2.57;;
68947;SDS011;55996;49.546;7.400;2024-03-02T10:36:23;2.93;;;2.40;;
68947;SDS011;55996;49.546;7.400;2024-03-02T10:38:49;3.53;;;2.33;;
68947;SDS011;55996;49.546;7.400;2024-03-02T10:41:18;3.27;;;2.53;;
68947;SDS011;55996;49.546;7.400;2024-03-02T10:43:44;2.70;;;2.47;;
68947;SDS011;55996;49.546;7.400;2024-03-02T10:46:11;3.43;;;2.63;;
68947;SDS011;55996;49.546;7.400;2024-03-02T10:48:39;3.27;;;2.60;;
68947;SDS011;55996;49.546;7.400;2024-03-02T10:51:06;3.90;;;2.70;;
68947;SDS011;55996;49.546;7.400;2024-03-02T10:53:31;2.80;;;2.40;;
68947;SDS011;55996;49.546;7.400;2024-03-02T10:55:57;3.73;;;2.40;;
68947;SDS011;55996;49.546;7.400;2024-03-02T10:58:31;4.13;;;2.40;;
68947;SDS011;55996;49.546;7.400;2024-03-02T11:01:00;2.77;;;2.13;;
68947;SDS011;55996;49.546;7.400;2024-03-02T11:03:29;2.73;;;2.20;;
68947;SDS011;55996;49.546;7.400;2024-03-02T11:05:58;2.50;;;1.90;;
68947;SDS011;55996;49.546;7.400;2024-03-02T11:08:25;2.50;;;1.90;;
68947;SDS011;55996;49.546;7.400;2024-03-02T11:11:00;3.10;;;2.23;;
68947;SDS011;55996;49.546;7.400;2024-03-02T11:13:39;2.20;;;2.00;;
68947;SDS011;55996;49.546;7.400;2024-03-02T11:16:13;2.10;;;1.90;;
68947;SDS011;55996;49.546;7.400;2024-03-02T11:19:03;3.17;;;2.17;;
68947;SDS011;55996;49.546;7.400;2024-03-02T11:21:32;3.37;;;2.07;;
68947;SDS011;55996;49.546;7.400;2024-03-02T11:23:59;2.03;;;1.70;;
68947;SDS011;55996;49.546;7.400;2024-03-02T11:26:24;2.53;;;1.93;;
68947;SDS011;55996;49.546;7.400;2024-03-02T11:28:50;4.17;;;2.00;;
68947;SDS011;55996;49.546;7.400;2024-03-02T11:31:16;2.10;;;1.73;;
68947;SDS011;55996;49.546;7.400;2024-03-02T11:33:41;2.17;;;1.70;;
68947;SDS011;55996;49.546;7.400;2024-03-02T11:36:08;2.63;;;1.73;;
68947;SDS011;55996;49.546;7.400;2024-03-02T11:38:36;2.60;;;1.93;;
68947;SDS011;55996;49.546;7.400;2024-03-02T11:41:02;3.23;;;1.80;;
68947;SDS011;55996;49.546;7.400;2024-03-02T11:43:32;3.23;;;1.90;;
68947;SDS011;55996;49.546;7.400;2024-03-02T11:46:03;2.57;;;1.80;;
68947;SDS011;55996;49.546;7.400;2024-03-02T11:48:32;1.93;;;1.77;;
68947;SDS011;55996;49.546;7.400;2024-03-02T11:50:58;2.70;;;1.80;;
68947;SDS011;55996;49.546;7.400;2024-03-02T11:53:27;1.90;;;1.70;;
68947;SDS011;55996;49.546;7.400;2024-03-02T11:55:59;3.57;;;1.53;;
68947;SDS011;55996;49.546;7.400;2024-03-02T11:58:27;1.57;;;1.47;;
68947;SDS011;55996;49.546;7.400;2024-03-02T12:00:53;1.80;;;1.60;;
68947;SDS011;55996;49.546;7.400;2024-03-02T12:03:21;2.80;;;1.50;;
68947;SDS011;55996;49.546;7.400;2024-03-02T12:05:51;2.77;;;1.50;;
68947;SDS011;55996;49.546;7.400;2024-03-02T12:08:17;2.00;;;1.50;;
68947;SDS011;55996;49.546;7.400;2024-03-02T12:11:04;2.30;;;1.40;;
68947;SDS011;55996;49.546;7.400;2024-03-02T12:13:29;1.30;;;1.20;;
68947;SDS011;55996;49.546;7.400;2024-03-02T12:15:55;1.47;;;1.30;;
68947;SDS011;55996;49.546;7.400;2024-03-02T12:18:21;1.40;;;1.30;;
68947;SDS011;55996;49.546;7.400;2024-03-02T12:20:48;1.70;;;1.40;;
68947;SDS011;55996;49.546;7.400;2024-03-02T12:23:14;1.50;;;1.20;;
68947;SDS011;55996;49.546;7.400;2024-03-02T12:25:39;1.30;;;1.20;;
68947;SDS011;55996;49.546;7.400;2024-03-02T12:28:05;1.30;;;1.20;;
68947;SDS011;55996;49.546;7.400;2024-03-02T12:30:32;2.70;;;1.30;;
68947;SDS011;55996;49.546;7.400;2024-03-02T12:33:00;1.37;;;1.27;;
68947;SDS011;55996;49.546;7.400;2024-03-02T12:35:25;1.47;;;1.30;;
68947;SDS011;55996;49.546;7.400;2024-03-02T12:37:51;1.80;;;1.30;;
68947;SDS011;55996;49.546;7.400;2024-03-02T12:40:18;1.30;;;1.10;;
68947;SDS011;55996;49.546;7.400;2024-03-02T12:42:48;1.37;;;1.27;;
68947;SDS011;55996;49.546;7.400;2024-03-02T12:45:14;2.23;;;1.17;;
68947;SDS011;55996;49.546;7.400;2024-03-02T12:47:41;1.10;;;1.00;;
68947;SDS011;55996;49.546;7.400;2024-03-02T12:50:07;1.37;;;1.20;;
68947;SDS011;55996;49.546;7.400;2024-03-02T12:52:34;1.27;;;1.00;;
68947;SDS011;55996;49.546;7.400;2024-03-02T12:55:00;1.43;;;1.10;;
68947;SDS011;55996;49.546;7.400;2024-03-02T12:57:28;1.17;;;1.10;;
68947;SDS011;55996;49.546;7.400;2024-03-02T13:00:01;1.07;;;0.87;;
68947;SDS011;55996;49.546;7.400;2024-03-02T13:02:34;1.47;;;1.00;;
68947;SDS011;55996;49.546;7.400;2024-03-02T13:05:00;1.90;;;0.97;;
68947;SDS011;55996;49.546;7.400;2024-03-02T13:07:26;1.10;;;1.00;;
68947;SDS011;55996;49.546;7.400;2024-03-02T13:09:52;1.03;;;1.00;;
68947;SDS011;55996;49.546;7.400;2024-03-02T13:12:20;0.93;;;0.87;;
68947;SDS011;55996;49.546;7.400;2024-03-02T13:14:51;1.27;;;0.87;;
68947;SDS011;55996;49.546;7.400;2024-03-02T13:17:20;1.23;;;1.10;;
68947;SDS011;55996;49.546;7.400;2024-03-02T13:19:55;2.50;;;0.90;;
68947;SDS011;55996;49.546;7.400;2024-03-02T13:22:22;0.97;;;0.90;;
68947;SDS011;55996;49.546;7.400;2024-03-02T13:24:48;1.40;;;0.90;;
68947;SDS011;55996;49.546;7.400;2024-03-02T13:27:17;1.23;;;1.10;;
68947;SDS011;55996;49.546;7.400;2024-03-02T13:29:48;1.17;;;1.00;;
68947;SDS011;55996;49.546;7.400;2024-03-02T13:32:14;1.00;;;1.00;;
68947;SDS011;55996;49.546;7.400;2024-03-02T13:34:40;1.03;;;0.90;;
68947;SDS011;55996;49.546;7.400;2024-03-02T13:37:06;1.20;;;1.10;;
68947;SDS011;55996;49.546;7.400;2024-03-02T13:39:32;1.47;;;1.10;;
68947;SDS011;55996;49.546;7.400;2024-03-02T13:42:00;1.20;;;1.10;;
68947;SDS011;55996;49.546;7.400;2024-03-02T13:44:30;1.40;;;0.97;;
68947;SDS011;55996;49.546;7.400;2024-03-02T13:46:56;4.30;;;1.40;;
68947;SDS011;55996;49.546;7.400;2024-03-02T13:49:23;0.90;;;0.90;;
68947;SDS011;55996;49.546;7.400;2024-03-02T13:51:48;1.23;;;1.13;;
68947;SDS011;55996;49.546;7.400;2024-03-02T13:54:14;1.43;;;1.33;;
68947;SDS011;55996;49.546;7.400;2024-03-02T13:56:39;1.20;;;1.07;;
68947;SDS011;55996;49.546;7.400;2024-03-02T13:59:06;1.20;;;1.10;;
68947;SDS011;55996;49.546;7.400;2024-03-02T14:01:32;1.43;;;1.07;;
68947;SDS011;55996;49.546;7.400;2024-03-02T14:03:57;1.47;;;1.33;;
68947;SDS011;55996;49.546;7.400;2024-03-02T14:06:23;1.60;;;1.00;;
68947;SDS011;55996;49.546;7.400;2024-03-02T14:08:48;1.83;;;1.13;;
68947;SDS011;55996;49.546;7.400;2024-03-02T14:11:14;1.10;;;1.00;;
68947;SDS011;55996;49.546;7.400;2024-03-02T14:13:41;1.33;;;1.23;;
68947;SDS011;55996;49.546;7.400;2024-03-02T14:16:06;1.90;;;1.03;;
68947;SDS011;55996;49.546;7.400;2024-03-02T14:18:32;1.33;;;1.00;;
68947;SDS011;55996;49.546;7.400;2024-03-02T14:20:57;1.27;;;1.17;;
68947;SDS011;55996;49.546;7.400;2024-03-02T14:23:23;1.67;;;1.30;;
68947;SDS011;55996;49.546;7.400;2024-03-02T14:25:50;1.43;;;1.33;;
68947;SDS011;55996;49.546;7.400;2024-03-02T14:28:16;1.87;;;1.13;;
68947;SDS011;55996;49.546;7.400;2024-03-02T14:30:41;1.13;;;0.90;;
68947;SDS011;55996;49.546;7.400;2024-03-02T14:33:07;2.70;;;1.37;;
68947;SDS011;55996;49.546;7.400;2024-03-02T14:35:32;0.87;;;0.87;;
68947;SDS011;55996;49.546;7.400;2024-03-02T14:37:57;2.00;;;1.00;;
68947;SDS011;55996;49.546;7.400;2024-03-02T14:40:23;1.80;;;1.20;;
68947;SDS011;55996;49.546;7.400;2024-03-02T14:42:52;1.10;;;1.00;;
68947;SDS011;55996;49.546;7.400;2024-03-02T14:45:17;1.20;;;1.10;;
68947;SDS011;55996;49.546;7.400;2024-03-02T14:47:42;0.90;;;0.90;;
68947;SDS011;55996;49.546;7.400;2024-03-02T14:50:08;1.23;;;0.83;;